Time;durP1;ratioP1;P1;durP2;ratioP2;P2;SDS_P1;SDS_P2;PMS_P1;PMS_P2;Temp;Humidity;BMP_temperature;BMP_pressure;BME280_temperature;BME280_humidity;BME280_pressure;Samples;Min_cycle;Max_cycle;Signal;HPM_P1;HPM_P2
2023/01/23 00:01:40;;;;;;;;;6.33;6.33;;;;;;;;117388;1182;25686;-62
2023/01/23 00:04:10;;;;;;;;;6.00;6.00;;;;;;;;117408;1183;25574;-62
2023/01/23 00:06:39;;;;;;;;;7.00;6.00;;;;;;;;117379;1182;25584;-66
2023/01/23 00:09:08;;;;;;;;;5.00;5.00;;;;;;;;117406;1182;25193;-70
2023/01/23 00:11:37;;;;;;;;;8.33;7.00;;;;;;;;117441;1195;25243;-66
2023/01/23 00:14:06;;;;;;;;;9.50;7.50;;;;;;;;117455;1185;25488;-69
2023/01/23 00:16:35;;;;;;;;;8.75;7.00;;;;;;;;117415;1183;25550;-66
2023/01/23 00:19:03;;;;;;;;;6.00;6.00;;;;;;;;117432;1182;25018;-65
2023/01/23 00:21:32;;;;;;;;;9.00;6.00;;;;;;;;117400;1183;24973;-70
2023/01/23 00:24:00;;;;;;;;;7.00;7.00;;;;;;;;117471;1195;24808;-67
2023/01/23 00:26:31;;;;;;;;;6.00;5.50;;;;;;;;117452;1182;24881;-65
2023/01/23 00:29:01;;;;;;;;;8.00;6.00;;;;;;;;117365;1181;24963;-62
2023/01/23 00:31:32;;;;;;;;;8.50;8.50;;;;;;;;117451;1182;24830;-64
2023/01/23 00:34:05;;;;;;;;;9.00;8.00;;;;;;;;117371;1184;24808;-64
2023/01/23 00:36:36;;;;;;;;;10.00;8.00;;;;;;;;117423;1182;25305;-63
2023/01/23 00:39:07;;;;;;;;;9.00;7.00;;;;;;;;117427;1184;24951;-63
2023/01/23 00:41:35;;;;;;;;;7.50;5.00;;;;;;;;117393;1182;25514;-68
2023/01/23 00:44:04;;;;;;;;;8.00;7.00;;;;;;;;117368;1182;24860;-66
2023/01/23 00:46:33;;;;;;;;;8.00;7.00;;;;;;;;117375;1184;24856;-62
2023/01/23 00:49:02;;;;;;;;;9.00;9.00;;;;;;;;117371;1182;24734;-60
2023/01/23 00:51:31;;;;;;;;;8.00;8.00;;;;;;;;117360;1182;25063;-62
2023/01/23 00:54:00;;;;;;;;;7.00;7.00;;;;;;;;117386;1184;25340;-63
2023/01/23 00:56:29;;;;;;;;;8.00;6.00;;;;;;;;117385;1187;24760;-62
2023/01/23 00:58:57;;;;;;;;;10.00;8.00;;;;;;;;117379;1189;25307;-62
2023/01/23 01:01:27;;;;;;;;;7.00;7.00;;;;;;;;117406;1182;25059;-60
2023/01/23 01:03:57;;;;;;;;;8.00;7.00;;;;;;;;117444;1195;25197;-61
2023/01/23 01:06:26;;;;;;;;;6.00;5.00;;;;;;;;117447;1182;24793;-61
2023/01/23 01:08:56;;;;;;;;;7.00;6.50;;;;;;;;117406;1184;24971;-61
2023/01/23 01:11:25;;;;;;;;;5.00;5.00;;;;;;;;117467;1181;24822;-61
2023/01/23 01:13:54;;;;;;;;;9.00;7.00;;;;;;;;117399;1182;25520;-62
2023/01/23 01:16:23;;;;;;;;;5.00;5.00;;;;;;;;117394;1182;25668;-61
2023/01/23 01:18:51;;;;;;;;;8.00;5.00;;;;;;;;117422;1182;25041;-61
2023/01/23 01:21:20;;;;;;;;;6.00;6.00;;;;;;;;117434;1194;25063;-62
2023/01/23 01:23:49;;;;;;;;;7.00;6.00;;;;;;;;117392;1182;24740;-62
2023/01/23 01:26:17;;;;;;;;;11.00;6.00;;;;;;;;117441;1189;25393;-62
2023/01/23 01:28:47;;;;;;;;;5.00;5.00;;;;;;;;117402;1182;25125;-62
2023/01/23 01:31:15;;;;;;;;;5.33;5.00;;;;;;;;117365;1182;25103;-62
2023/01/23 01:33:44;;;;;;;;;7.00;6.00;;;;;;;;117393;1182;25769;-61
2023/01/23 01:36:15;;;;;;;;;5.00;4.33;;;;;;;;117359;1194;26250;-60
2023/01/23 01:38:43;;;;;;;;;6.00;4.50;;;;;;;;117374;1195;25584;-62
2023/01/23 01:41:13;;;;;;;;;5.50;4.00;;;;;;;;117375;1187;25110;-61
2023/01/23 01:43:41;;;;;;;;;4.50;4.00;;;;;;;;117356;1184;24812;-61
2023/01/23 01:46:27;;;;;;;;;5.00;4.00;;;;;;;;117342;1191;25039;-62
2023/01/23 01:49:14;;;;;;;;;6.00;5.00;;;;;;;;117351;1189;25547;-61
2023/01/23 01:51:49;;;;;;;;;6.00;5.00;;;;;;;;117322;1185;24919;-61
2023/01/23 01:54:38;;;;;;;;;9.00;5.00;;;;;;;;117340;1182;24808;-61
2023/01/23 01:57:18;;;;;;;;;4.50;4.50;;;;;;;;117320;1184;24864;-62
2023/01/23 01:59:49;;;;;;;;;6.00;5.00;;;;;;;;117310;1195;25257;-61
2023/01/23 02:02:25;;;;;;;;;3.50;3.00;;;;;;;;117378;1182;25454;-61
2023/01/23 02:04:54;;;;;;;;;;;;;;;;;;117347;1182;25346;-61
2023/01/23 02:07:29;;;;;;;;;4.00;3.00;;;;;;;;117263;1184;25267;-62
2023/01/23 02:09:57;;;;;;;;;5.00;3.00;;;;;;;;117374;1184;24760;-64
2023/01/23 02:12:27;;;;;;;;;6.00;5.00;;;;;;;;117369;1195;25074;-62
2023/01/23 02:14:55;;;;;;;;;5.50;5.50;;;;;;;;117361;1182;25003;-60
2023/01/23 02:17:24;;;;;;;;;2.00;2.00;;;;;;;;117396;1182;25068;-60
2023/01/23 02:20:01;;;;;;;;;6.00;5.00;;;;;;;;117425;1183;25420;-61
2023/01/23 02:22:48;;;;;;;;;5.00;4.00;;;;;;;;117418;1182;25451;-61
2023/01/23 02:25:44;;;;;;;;;5.00;4.00;;;;;;;;117423;1182;25325;-61
2023/01/23 02:28:15;;;;;;;;;5.00;5.00;;;;;;;;117420;1183;25726;-61
2023/01/23 02:30:46;;;;;;;;;6.00;5.00;;;;;;;;117407;1183;25032;-61
2023/01/23 02:33:21;;;;;;;;;2.67;2.33;;;;;;;;117410;1185;25538;-61
2023/01/23 02:35:49;;;;;;;;;7.00;5.00;;;;;;;;117419;1195;25158;-61
2023/01/23 02:38:21;;;;;;;;;4.50;4.50;;;;;;;;117436;1182;25573;-61
2023/01/23 02:40:51;;;;;;;;;5.50;4.50;;;;;;;;117438;1184;25326;-61
2023/01/23 02:43:23;;;;;;;;;4.00;4.00;;;;;;;;117439;1182;24900;-61
2023/01/23 02:45:53;;;;;;;;;3.50;3.50;;;;;;;;117422;1183;25627;-62
2023/01/23 02:48:21;;;;;;;;;4.67;3.00;;;;;;;;117416;1195;25563;-61
2023/01/23 02:50:49;;;;;;;;;4.00;3.33;;;;;;;;117371;1182;24824;-61
2023/01/23 02:53:18;;;;;;;;;6.75;3.00;;;;;;;;117367;1195;25574;-62
2023/01/23 02:55:47;;;;;;;;;4.00;4.00;;;;;;;;117332;1195;25623;-62
2023/01/23 03:01:03;;;;;;;;;3.00;3.00;;;;;;;;117359;1182;25662;-61
2023/01/23 03:03:31;;;;;;;;;2.00;2.00;;;;;;;;117379;1182;25644;-61
2023/01/23 03:06:02;;;;;;;;;5.00;3.00;;;;;;;;117344;1183;25620;-61
2023/01/23 03:08:35;;;;;;;;;6.50;3.00;;;;;;;;117359;1182;24984;-62
2023/01/23 03:11:04;;;;;;;;;4.50;4.00;;;;;;;;117363;1182;25032;-62
2023/01/23 03:13:32;;;;;;;;;5.00;4.00;;;;;;;;117355;1183;25602;-61
2023/01/23 03:16:01;;;;;;;;;4.00;3.00;;;;;;;;117357;1187;24747;-61
2023/01/23 03:18:30;;;;;;;;;2.00;2.00;;;;;;;;117400;1182;25712;-61
2023/01/23 03:21:03;;;;;;;;;3.00;3.00;;;;;;;;117354;1195;25255;-61
2023/01/23 03:23:32;;;;;;;;;3.00;3.00;;;;;;;;117344;1184;24880;-60
2023/01/23 03:26:01;;;;;;;;;3.67;3.00;;;;;;;;117440;1182;24754;-62
2023/01/23 03:31:16;;;;;;;;;3.00;2.00;;;;;;;;117358;1187;24920;-61
2023/01/23 03:33:45;;;;;;;;;5.00;3.00;;;;;;;;117451;1187;25564;-61
2023/01/23 03:36:14;;;;;;;;;3.00;3.00;;;;;;;;117399;1190;25095;-61
2023/01/23 03:41:23;;;;;;;;;5.00;2.00;;;;;;;;117438;1189;25323;-62
2023/01/23 03:41:30;;;;;;;;;3.00;3.00;;;;;;;;117338;1182;25459;-61
2023/01/23 03:43:59;;;;;;;;;2.00;2.00;;;;;;;;117343;1182;25390;-63
2023/01/23 03:46:27;;;;;;;;;5.00;3.00;;;;;;;;117335;1183;24884;-62
2023/01/23 03:48:56;;;;;;;;;2.00;2.00;;;;;;;;117347;1182;24782;-60
2023/01/23 03:51:24;;;;;;;;;5.00;5.00;;;;;;;;117356;1195;25917;-61
2023/01/23 03:53:52;;;;;;;;;4.00;4.00;;;;;;;;117387;1182;25075;-61
2023/01/23 03:56:21;;;;;;;;;2.00;2.00;;;;;;;;117347;1182;25535;-62
2023/01/23 03:58:49;;;;;;;;;1.33;1.00;;;;;;;;117369;1191;25619;-61
2023/01/23 04:01:18;;;;;;;;;3.00;3.00;;;;;;;;117413;1182;24807;-61
2023/01/23 04:03:46;;;;;;;;;2.00;2.00;;;;;;;;117410;1184;25103;-61
2023/01/23 04:06:16;;;;;;;;;4.00;4.00;;;;;;;;117403;1184;24727;-61
2023/01/23 04:08:44;;;;;;;;;4.00;3.00;;;;;;;;117434;1195;24921;-61
2023/01/23 04:11:13;;;;;;;;;3.00;3.00;;;;;;;;117363;1195;25005;-61
2023/01/23 04:13:42;;;;;;;;;4.00;3.00;;;;;;;;117390;1195;26323;-62
2023/01/23 04:16:10;;;;;;;;;3.00;3.00;;;;;;;;117347;1194;25685;-62
2023/01/23 04:18:39;;;;;;;;;5.00;4.00;;;;;;;;117415;1181;25428;-61
2023/01/23 04:21:07;;;;;;;;;4.00;4.00;;;;;;;;117460;1195;25044;-60
2023/01/23 04:23:36;;;;;;;;;5.00;3.00;;;;;;;;117445;1182;25600;-60
2023/01/23 04:26:04;;;;;;;;;4.00;3.00;;;;;;;;117408;1191;25561;-61
2023/01/23 04:28:33;;;;;;;;;4.00;4.00;;;;;;;;117376;1185;25600;-61
2023/01/23 04:31:01;;;;;;;;;3.00;3.00;;;;;;;;117433;1195;24914;-61
2023/01/23 04:33:30;;;;;;;;;3.00;3.00;;;;;;;;117419;1182;24904;-61
2023/01/23 04:36:02;;;;;;;;;5.00;3.00;;;;;;;;117400;1192;25360;-61
2023/01/23 04:38:31;;;;;;;;;2.00;1.00;;;;;;;;117400;1182;25084;-61
2023/01/23 04:41:00;;;;;;;;;2.50;2.50;;;;;;;;117400;1182;25143;-61
2023/01/23 04:43:28;;;;;;;;;3.00;3.00;;;;;;;;117421;1183;25343;-61
2023/01/23 04:45:57;;;;;;;;;3.00;3.00;;;;;;;;117386;1184;24856;-61
2023/01/23 04:48:25;;;;;;;;;2.00;2.00;;;;;;;;117415;1182;25314;-61
2023/01/23 04:50:54;;;;;;;;;2.00;2.00;;;;;;;;117371;1182;24993;-61
2023/01/23 04:53:22;;;;;;;;;2.33;2.33;;;;;;;;117380;1184;25112;-62
2023/01/23 04:55:51;;;;;;;;;3.00;3.00;;;;;;;;117377;1182;25306;-62
2023/01/23 04:58:19;;;;;;;;;3.00;2.50;;;;;;;;117330;1183;25051;-62
2023/01/23 05:00:48;;;;;;;;;3.00;3.00;;;;;;;;117350;1184;24811;-62
2023/01/23 05:03:17;;;;;;;;;2.00;2.00;;;;;;;;117417;1182;24920;-62
2023/01/23 05:05:46;;;;;;;;;1.00;1.00;;;;;;;;117358;1187;25609;-61
2023/01/23 05:08:15;;;;;;;;;3.00;3.00;;;;;;;;117398;1191;25381;-62
2023/01/23 05:10:43;;;;;;;;;2.00;2.00;;;;;;;;117363;1183;25703;-61
2023/01/23 05:13:12;;;;;;;;;3.00;2.00;;;;;;;;117455;1184;24914;-61
2023/01/23 05:15:40;;;;;;;;;4.00;2.00;;;;;;;;117366;1187;25544;-62
2023/01/23 05:18:09;;;;;;;;;2.00;2.00;;;;;;;;117359;1190;25128;-62
2023/01/23 05:20:37;;;;;;;;;3.00;2.50;;;;;;;;117357;1182;25296;-62
2023/01/23 05:23:06;;;;;;;;;1.33;1.33;;;;;;;;117414;1195;25568;-61
2023/01/23 05:25:34;;;;;;;;;4.00;2.00;;;;;;;;117424;1184;25639;-61
2023/01/23 05:28:03;;;;;;;;;5.00;2.50;;;;;;;;117434;1181;25473;-62
2023/01/23 05:30:32;;;;;;;;;1.50;1.50;;;;;;;;117391;1183;25622;-63
2023/01/23 05:33:01;;;;;;;;;2.00;2.00;;;;;;;;117479;1182;25651;-64
2023/01/23 05:35:29;;;;;;;;;3.00;1.50;;;;;;;;117464;1182;25344;-63
2023/01/23 05:37:57;;;;;;;;;1.67;1.67;;;;;;;;117384;1195;24709;-62
2023/01/23 05:40:26;;;;;;;;;3.00;3.00;;;;;;;;117375;1185;25415;-62
2023/01/23 05:42:54;;;;;;;;;1.33;1.33;;;;;;;;117399;1182;24800;-62
2023/01/23 05:45:23;;;;;;;;;2.00;2.00;;;;;;;;117390;1182;25273;-60
2023/01/23 05:47:51;;;;;;;;;3.00;3.00;;;;;;;;117363;1187;24733;-61
2023/01/23 05:50:22;;;;;;;;;3.00;2.00;;;;;;;;117352;1182;25224;-62
2023/01/23 05:52:51;;;;;;;;;3.00;3.00;;;;;;;;117354;1195;25634;-62
2023/01/23 05:55:19;;;;;;;;;2.00;2.00;;;;;;;;117412;1186;25655;-69
2023/01/23 05:57:48;;;;;;;;;4.67;2.33;;;;;;;;117345;1190;25665;-63
2023/01/23 06:00:17;;;;;;;;;4.67;4.67;;;;;;;;117409;1182;24707;-61
2023/01/23 06:02:46;;;;;;;;;3.00;2.00;;;;;;;;117426;1182;26422;-61
2023/01/23 06:05:15;;;;;;;;;5.00;5.00;;;;;;;;117407;1183;24722;-61
2023/01/23 06:07:43;;;;;;;;;5.00;5.00;;;;;;;;117395;1184;25657;-61
2023/01/23 06:10:12;;;;;;;;;9.00;6.00;;;;;;;;117364;1194;25518;-61
2023/01/23 06:12:40;;;;;;;;;9.50;6.00;;;;;;;;117387;1194;25489;-62
2023/01/23 06:15:10;;;;;;;;;10.00;5.50;;;;;;;;117406;1182;26340;-61
2023/01/23 06:17:38;;;;;;;;;10.00;9.00;;;;;;;;117428;1184;25018;-62
2023/01/23 06:20:08;;;;;;;;;13.00;10.00;;;;;;;;117366;1182;24961;-61
2023/01/23 06:22:36;;;;;;;;;15.67;14.67;;;;;;;;117471;1182;26130;-63
2023/01/23 06:25:05;;;;;;;;;19.50;17.75;;;;;;;;117381;1184;24941;-63
2023/01/23 06:27:34;;;;;;;;;31.00;26.50;;;;;;;;117342;1195;24914;-63
2023/01/23 06:30:03;;;;;;;;;43.00;35.50;;;;;;;;117321;1183;25117;-64
2023/01/23 06:32:32;;;;;;;;;47.00;39.00;;;;;;;;117321;1182;24817;-63
2023/01/23 06:35:01;;;;;;;;;44.00;34.50;;;;;;;;117403;1182;25140;-60
2023/01/23 06:37:29;;;;;;;;;28.00;24.00;;;;;;;;117415;1182;25482;-60
2023/01/23 06:39:58;;;;;;;;;39.00;33.00;;;;;;;;117357;1189;25397;-61
2023/01/23 06:42:26;;;;;;;;;35.00;29.00;;;;;;;;117313;1194;25566;-61
2023/01/23 06:44:55;;;;;;;;;31.00;29.50;;;;;;;;117329;1192;24875;-61
2023/01/23 06:47:23;;;;;;;;;28.50;28.50;;;;;;;;117364;1182;25069;-61
2023/01/23 06:49:52;;;;;;;;;31.67;28.00;;;;;;;;117336;1192;25629;-59
2023/01/23 06:52:20;;;;;;;;;31.00;25.00;;;;;;;;117359;1185;25572;-61
2023/01/23 06:54:49;;;;;;;;;32.00;27.00;;;;;;;;117349;1182;25344;-61
2023/01/23 06:57:17;;;;;;;;;24.50;21.00;;;;;;;;117372;1189;25511;-60
2023/01/23 06:59:46;;;;;;;;;31.00;26.00;;;;;;;;117325;1195;24799;-60
2023/01/23 07:02:14;;;;;;;;;22.00;22.00;;;;;;;;117356;1186;25490;-60
2023/01/23 07:04:43;;;;;;;;;26.50;25.50;;;;;;;;117371;1184;25244;-60
2023/01/23 07:07:12;;;;;;;;;26.50;25.00;;;;;;;;117277;1184;24949;-60
2023/01/23 07:09:41;;;;;;;;;27.00;24.00;;;;;;;;117325;1182;25244;-61
2023/01/23 07:12:10;;;;;;;;;30.00;23.00;;;;;;;;117314;1182;25220;-62
2023/01/23 07:14:38;;;;;;;;;15.00;15.00;;;;;;;;117456;1182;24809;-67
2023/01/23 07:17:07;;;;;;;;;24.33;22.00;;;;;;;;117400;1195;25538;-62
2023/01/23 07:19:35;;;;;;;;;24.00;22.00;;;;;;;;117385;1182;25011;-61
2023/01/23 07:22:04;;;;;;;;;25.00;21.50;;;;;;;;117368;1182;24860;-59
2023/01/23 07:24:33;;;;;;;;;18.67;18.00;;;;;;;;117345;1184;24793;-61
2023/01/23 07:27:01;;;;;;;;;20.00;19.00;;;;;;;;117398;1182;25330;-60
2023/01/23 07:29:30;;;;;;;;;24.50;22.00;;;;;;;;117393;1190;24923;-60
2023/01/23 07:31:59;;;;;;;;;22.50;20.50;;;;;;;;117358;1187;25634;-59
2023/01/23 07:34:28;;;;;;;;;20.00;17.50;;;;;;;;117357;1182;25223;-59
2023/01/23 07:36:56;;;;;;;;;22.00;20.00;;;;;;;;117377;1184;25184;-59
2023/01/23 07:39:25;;;;;;;;;19.50;19.50;;;;;;;;117362;1195;25443;-58
2023/01/23 07:41:54;;;;;;;;;20.00;20.00;;;;;;;;117392;1182;25129;-58
2023/01/23 07:44:22;;;;;;;;;19.00;16.50;;;;;;;;117332;1189;25597;-60
2023/01/23 07:46:51;;;;;;;;;18.00;18.00;;;;;;;;117391;1183;24950;-60
2023/01/23 07:49:20;;;;;;;;;18.33;18.00;;;;;;;;117366;1183;25659;-60
2023/01/23 07:51:48;;;;;;;;;23.67;19.67;;;;;;;;117429;1184;25255;-60
2023/01/23 07:54:16;;;;;;;;;19.00;18.00;;;;;;;;117394;1194;25175;-60
2023/01/23 07:56:48;;;;;;;;;13.00;9.00;;;;;;;;117410;1182;24947;-60
2023/01/23 07:59:17;;;;;;;;;19.50;17.00;;;;;;;;117424;1189;25594;-60
2023/01/23 08:01:47;;;;;;;;;16.33;16.00;;;;;;;;117464;1182;25119;-60
2023/01/23 08:04:16;;;;;;;;;20.33;18.67;;;;;;;;117454;1182;25042;-61
2023/01/23 08:06:44;;;;;;;;;16.00;16.00;;;;;;;;117403;1183;24833;-60
2023/01/23 08:09:13;;;;;;;;;11.00;11.00;;;;;;;;117370;1192;24719;-60
2023/01/23 08:11:41;;;;;;;;;20.00;17.50;;;;;;;;117356;1187;25171;-60
2023/01/23 08:14:11;;;;;;;;;21.00;17.50;;;;;;;;117294;1184;25052;-60
2023/01/23 08:16:39;;;;;;;;;18.50;15.50;;;;;;;;117375;1195;24889;-61
2023/01/23 08:19:08;;;;;;;;;18.00;18.00;;;;;;;;117365;1182;25685;-61
2023/01/23 08:21:36;;;;;;;;;17.00;16.00;;;;;;;;117394;1182;24943;-61
2023/01/23 08:24:05;;;;;;;;;18.00;16.00;;;;;;;;117389;1182;24983;-60
2023/01/23 08:26:34;;;;;;;;;17.00;15.00;;;;;;;;117369;1195;25467;-61
2023/01/23 08:29:03;;;;;;;;;17.50;15.50;;;;;;;;117372;1195;25431;-61
2023/01/23 08:31:31;;;;;;;;;18.00;15.00;;;;;;;;117381;1195;24923;-61
2023/01/23 08:34:00;;;;;;;;;15.00;15.00;;;;;;;;117373;1195;25571;-62
2023/01/23 08:36:28;;;;;;;;;18.50;17.00;;;;;;;;117329;1188;25570;-61
2023/01/23 08:38:58;;;;;;;;;16.00;13.00;;;;;;;;117392;1184;25014;-61
2023/01/23 08:41:27;;;;;;;;;15.75;14.25;;;;;;;;117378;1195;25227;-61
2023/01/23 08:44:00;;;;;;;;;16.00;15.00;;;;;;;;117350;1194;25381;-61
2023/01/23 08:46:28;;;;;;;;;15.00;14.00;;;;;;;;117363;1182;25648;-61
2023/01/23 08:48:57;;;;;;;;;14.00;13.50;;;;;;;;117341;1184;24997;-62
2023/01/23 08:51:26;;;;;;;;;15.50;15.00;;;;;;;;117238;1182;25268;-60
2023/01/23 08:53:55;;;;;;;;;16.33;15.00;;;;;;;;117380;1195;25416;-63
2023/01/23 08:56:24;;;;;;;;;13.00;12.00;;;;;;;;117399;1189;25585;-63
2023/01/23 08:58:52;;;;;;;;;14.00;13.50;;;;;;;;117413;1182;25507;-61
2023/01/23 09:01:24;;;;;;;;;12.00;12.00;;;;;;;;117337;1192;26036;-61
2023/01/23 09:03:52;;;;;;;;;16.00;12.00;;;;;;;;117341;1195;25208;-62
2023/01/23 09:06:22;;;;;;;;;13.50;13.00;;;;;;;;117350;1183;25531;-61
2023/01/23 09:08:50;;;;;;;;;13.00;12.25;;;;;;;;117373;1182;24812;-61
2023/01/23 09:11:19;;;;;;;;;15.50;13.00;;;;;;;;117339;1182;25072;-61
2023/01/23 09:13:48;;;;;;;;;12.50;12.00;;;;;;;;117348;1183;25054;-61
2023/01/23 09:16:17;;;;;;;;;14.00;14.00;;;;;;;;117341;1184;25021;-60
2023/01/23 09:18:47;;;;;;;;;14.50;12.50;;;;;;;;117386;1195;25143;-63
2023/01/23 09:21:16;;;;;;;;;11.33;10.33;;;;;;;;117394;1184;25305;-62
2023/01/23 09:23:45;;;;;;;;;14.00;13.00;;;;;;;;117352;1182;25137;-61
2023/01/23 09:26:14;;;;;;;;;12.00;11.00;;;;;;;;117383;1184;25518;-61
2023/01/23 09:28:44;;;;;;;;;11.67;11.67;;;;;;;;117358;1182;24916;-61
2023/01/23 09:31:13;;;;;;;;;17.00;13.00;;;;;;;;117387;1182;25825;-61
2023/01/23 09:33:41;;;;;;;;;9.00;9.00;;;;;;;;117481;1190;25456;-61
2023/01/23 09:36:10;;;;;;;;;11.50;11.50;;;;;;;;117449;1184;25314;-61
2023/01/23 09:38:39;;;;;;;;;12.00;12.00;;;;;;;;117436;1184;24829;-62
2023/01/23 09:41:19;;;;;;;;;12.50;11.00;;;;;;;;117439;1181;25678;-61
2023/01/23 09:44:04;;;;;;;;;11.33;11.33;;;;;;;;117399;1187;25652;-61
2023/01/23 09:46:44;;;;;;;;;10.00;10.00;;;;;;;;117398;1195;27345;-61
2023/01/23 09:49:37;;;;;;;;;11.00;10.50;;;;;;;;117420;1181;24964;-61
2023/01/23 09:52:12;;;;;;;;;13.00;11.50;;;;;;;;117386;1182;25186;-62
2023/01/23 09:54:49;;;;;;;;;12.50;11.00;;;;;;;;117422;1184;25376;-62
2023/01/23 09:57:23;;;;;;;;;12.50;10.50;;;;;;;;117411;1183;25750;-63
2023/01/23 10:00:21;;;;;;;;;9.00;9.00;;;;;;;;117326;1190;25322;-64
2023/01/23 10:02:52;;;;;;;;;11.00;11.00;;;;;;;;117415;1184;24854;-64
2023/01/23 10:05:28;;;;;;;;;11.00;10.00;;;;;;;;117415;1181;25377;-64
2023/01/23 10:08:14;;;;;;;;;10.00;10.00;;;;;;;;117397;1194;25740;-63
2023/01/23 10:11:21;;;;;;;;;11.00;11.00;;;;;;;;117401;1182;25610;-63
2023/01/23 10:14:13;;;;;;;;;13.00;10.00;;;;;;;;117375;1182;24974;-62
2023/01/23 10:16:57;;;;;;;;;9.00;7.33;;;;;;;;117413;1184;24847;-63
2023/01/23 10:19:33;;;;;;;;;9.00;8.00;;;;;;;;117424;1191;24837;-63
2023/01/23 10:22:34;;;;;;;;;9.67;9.67;;;;;;;;117402;1180;24781;-63
2023/01/23 10:25:14;;;;;;;;;13.00;12.00;;;;;;;;117424;1194;25185;-63
2023/01/23 10:27:46;;;;;;;;;10.50;8.50;;;;;;;;117368;1190;24834;-62
2023/01/23 10:30:25;;;;;;;;;10.50;10.00;;;;;;;;117401;1194;25350;-64
2023/01/23 10:32:57;;;;;;;;;8.00;8.00;;;;;;;;117405;1184;25435;-63
2023/01/23 10:35:44;;;;;;;;;10.00;8.00;;;;;;;;117432;1183;25487;-64
2023/01/23 10:38:30;;;;;;;;;9.00;8.00;;;;;;;;117453;1183;25436;-68
2023/01/23 10:41:14;;;;;;;;;8.50;8.00;;;;;;;;117443;1195;25558;-67
2023/01/23 10:43:51;;;;;;;;;9.00;9.00;;;;;;;;117423;1181;25428;-66
2023/01/23 10:46:34;;;;;;;;;10.00;9.00;;;;;;;;117406;1184;25354;-62
2023/01/23 10:49:03;;;;;;;;;7.67;7.67;;;;;;;;117395;1182;25647;-63
2023/01/23 10:51:37;;;;;;;;;6.33;6.33;;;;;;;;117491;1181;25706;-64
2023/01/23 10:54:17;;;;;;;;;9.00;9.00;;;;;;;;117445;1185;25163;-64
2023/01/23 10:57:16;;;;;;;;;10.50;9.00;;;;;;;;117397;1183;25448;-62
2023/01/23 11:00:16;;;;;;;;;10.00;9.00;;;;;;;;117441;1184;25284;-64
2023/01/23 11:02:44;;;;;;;;;12.67;9.00;;;;;;;;117320;1184;25172;-63
2023/01/23 11:05:37;;;;;;;;;11.00;11.00;;;;;;;;117392;1182;25231;-62
2023/01/23 11:08:26;;;;;;;;;10.00;10.00;;;;;;;;117360;1194;24943;-61
2023/01/23 11:11:14;;;;;;;;;11.00;11.00;;;;;;;;117416;1182;25025;-63
2023/01/23 11:13:44;;;;;;;;;14.00;12.00;;;;;;;;117344;1182;25430;-61
2023/01/23 11:16:22;;;;;;;;;16.50;14.00;;;;;;;;117372;1194;24791;-62
2023/01/23 11:19:17;;;;;;;;;14.00;12.00;;;;;;;;117393;1183;25624;-61
2023/01/23 11:21:55;;;;;;;;;16.50;13.75;;;;;;;;117359;1182;24931;-61
2023/01/23 11:24:33;;;;;;;;;15.50;14.00;;;;;;;;117381;1195;25363;-61
2023/01/23 11:27:16;;;;;;;;;14.00;13.67;;;;;;;;117411;1182;25047;-61
2023/01/23 11:30:02;;;;;;;;;21.33;14.00;;;;;;;;117344;1182;25485;-61
2023/01/23 11:32:46;;;;;;;;;14.67;13.33;;;;;;;;117406;1195;25323;-62
2023/01/23 11:35:19;;;;;;;;;14.00;13.00;;;;;;;;117399;1186;24798;-62
2023/01/23 11:37:47;;;;;;;;;12.00;11.00;;;;;;;;117410;1182;24951;-62
2023/01/23 11:40:18;;;;;;;;;12.33;12.33;;;;;;;;117351;1182;25332;-64
2023/01/23 11:42:47;;;;;;;;;14.00;11.00;;;;;;;;117453;1182;25050;-63
2023/01/23 11:45:33;;;;;;;;;12.33;12.33;;;;;;;;117377;1190;24951;-62
2023/01/23 11:48:07;;;;;;;;;13.00;11.00;;;;;;;;117392;1182;25304;-62
2023/01/23 11:50:40;;;;;;;;;13.00;11.00;;;;;;;;117431;1195;25461;-62
2023/01/23 11:53:34;;;;;;;;;15.00;13.50;;;;;;;;117389;1182;24731;-61
2023/01/23 11:56:09;;;;;;;;;14.00;10.00;;;;;;;;117480;1182;25163;-65
2023/01/23 11:59:07;;;;;;;;;12.67;11.00;;;;;;;;117354;1187;24804;-66
2023/01/23 12:01:48;;;;;;;;;13.00;12.00;;;;;;;;117406;1182;25198;-66
2023/01/23 12:04:41;;;;;;;;;12.00;10.00;;;;;;;;117450;1195;25159;-65
2023/01/23 12:07:15;;;;;;;;;14.00;11.33;;;;;;;;117429;1182;25123;-63
2023/01/23 12:10:11;;;;;;;;;11.33;9.00;;;;;;;;117459;1189;25698;-63
2023/01/23 12:12:43;;;;;;;;;12.00;10.00;;;;;;;;117350;1182;25680;-61
2023/01/23 12:15:18;;;;;;;;;11.00;11.00;;;;;;;;117402;1184;25300;-62
2023/01/23 12:18:00;;;;;;;;;12.00;11.00;;;;;;;;117388;1195;25526;-62
2023/01/23 12:20:42;;;;;;;;;9.50;8.50;;;;;;;;117433;1186;25082;-59
2023/01/23 12:23:26;;;;;;;;;12.00;12.00;;;;;;;;117361;1184;25003;-62
2023/01/23 12:26:24;;;;;;;;;8.00;8.00;;;;;;;;117347;1187;25279;-62
2023/01/23 12:29:17;;;;;;;;;9.00;9.00;;;;;;;;117362;1184;25639;-63
2023/01/23 12:32:19;;;;;;;;;11.00;10.00;;;;;;;;117396;1195;24933;-62
2023/01/23 12:35:16;;;;;;;;;11.00;7.00;;;;;;;;117350;1184;25479;-63
2023/01/23 12:37:56;;;;;;;;;12.50;11.00;;;;;;;;117357;1189;24884;-65
2023/01/23 12:40:36;;;;;;;;;12.00;10.00;;;;;;;;117410;1182;25582;-64
2023/01/23 12:43:22;;;;;;;;;8.00;7.50;;;;;;;;117370;1187;24891;-62
2023/01/23 12:45:58;;;;;;;;;8.50;8.50;;;;;;;;117332;1195;26280;-61
2023/01/23 12:48:34;;;;;;;;;11.00;9.00;;;;;;;;117334;1182;25459;-64
2023/01/23 12:51:20;;;;;;;;;9.50;8.00;;;;;;;;117360;1182;25562;-61
2023/01/23 12:53:52;;;;;;;;;11.00;10.00;;;;;;;;117357;1195;25427;-61
2023/01/23 12:56:32;;;;;;;;;9.00;7.00;;;;;;;;117341;1183;25027;-61
2023/01/23 12:59:34;;;;;;;;;12.50;11.50;;;;;;;;117389;1182;25663;-60
2023/01/23 13:02:23;;;;;;;;;11.00;9.00;;;;;;;;117370;1195;25173;-61
2023/01/23 13:05:30;;;;;;;;;9.00;8.00;;;;;;;;117351;1182;26200;-60
2023/01/23 13:08:08;;;;;;;;;8.00;6.50;;;;;;;;117336;1195;25405;-64
2023/01/23 13:13:39;;;;;;;;;10.00;9.00;;;;;;;;117367;1184;25165;-62
2023/01/23 13:16:13;;;;;;;;;7.00;4.50;;;;;;;;117389;1182;25452;-64
2023/01/23 13:22:17;;;;;;;;;8.00;6.00;;;;;;;;117339;1184;25421;-61
2023/01/23 13:25:11;;;;;;;;;11.67;8.00;;;;;;;;117413;1182;25411;-64
2023/01/23 13:27:58;;;;;;;;;8.00;8.00;;;;;;;;117420;1182;25637;-65
2023/01/23 13:30:34;;;;;;;;;8.50;7.50;;;;;;;;117393;1188;24931;-63
2023/01/23 13:33:05;;;;;;;;;7.75;7.25;;;;;;;;117343;1184;25049;-61
2023/01/23 13:35:43;;;;;;;;;5.50;5.50;;;;;;;;117340;1182;25171;-63
2023/01/23 13:38:21;;;;;;;;;10.00;7.00;;;;;;;;117342;1195;25489;-62
2023/01/23 13:41:07;;;;;;;;;9.00;9.00;;;;;;;;117356;1183;25596;-63
2023/01/23 13:44:02;;;;;;;;;10.50;9.50;;;;;;;;117348;1182;24946;-66
2023/01/23 13:49:49;;;;;;;;;8.00;8.00;;;;;;;;117381;1183;24837;-62
2023/01/23 13:50:24;;;;;;;;;8.00;7.00;;;;;;;;116950;1185;25808;-65
2023/01/23 13:56:46;;;;;;;;;6.50;6.50;;;;;;;;116512;1190;25546;-64
2023/01/23 13:59:36;;;;;;;;;5.50;5.50;;;;;;;;116151;1193;25188;-63
2023/01/23 14:05:39;;;;;;;;;6.00;6.00;;;;;;;;115687;1197;25418;-66
2023/01/23 14:08:22;;;;;;;;;6.00;6.00;;;;;;;;115365;1199;25653;-67
2023/01/23 14:11:17;;;;;;;;;7.50;7.50;;;;;;;;114915;1203;26232;-65
2023/01/23 14:17:13;;;;;;;;;10.00;6.00;;;;;;;;114814;1216;24953;-62
2023/01/23 14:20:17;;;;;;;;;5.00;5.00;;;;;;;;114802;1203;25778;-65
2023/01/23 14:22:46;;;;;;;;;6.50;6.50;;;;;;;;114883;1203;25775;-64
2023/01/23 14:25:17;;;;;;;;;6.50;6.50;;;;;;;;115456;1202;25470;-67
2023/01/23 14:28:05;;;;;;;;;6.00;6.00;;;;;;;;115631;1201;24927;-63
2023/01/23 14:30:34;;;;;;;;;5.00;5.00;;;;;;;;115687;1199;25299;-61
2023/01/23 14:33:10;;;;;;;;;7.00;7.00;;;;;;;;116222;1193;24976;-64
2023/01/23 14:35:41;;;;;;;;;4.00;4.00;;;;;;;;116336;1204;25630;-64
2023/01/23 14:38:29;;;;;;;;;7.50;7.00;;;;;;;;116360;1193;25291;-63
2023/01/23 14:40:57;;;;;;;;;6.00;6.00;;;;;;;;116652;1201;24986;-62
2023/01/23 14:43:28;;;;;;;;;6.50;5.00;;;;;;;;116868;1187;25315;-61
2023/01/23 14:46:03;;;;;;;;;6.00;5.00;;;;;;;;117269;1187;24974;-61
2023/01/23 14:48:36;;;;;;;;;7.00;5.00;;;;;;;;117380;1195;24850;-61
2023/01/23 14:51:14;;;;;;;;;7.00;6.00;;;;;;;;117355;1184;24921;-60
2023/01/23 14:53:59;;;;;;;;;6.00;4.00;;;;;;;;117357;1182;25716;-61
2023/01/23 14:56:38;;;;;;;;;5.00;5.00;;;;;;;;117352;1184;25263;-61
2023/01/23 14:59:20;;;;;;;;;2.33;2.33;;;;;;;;117399;1182;26164;-62
2023/01/23 15:01:53;;;;;;;;;4.33;4.00;;;;;;;;117419;1190;25090;-62
2023/01/23 15:04:25;;;;;;;;;7.00;6.00;;;;;;;;117400;1194;25593;-63
2023/01/23 15:06:57;;;;;;;;;6.00;6.00;;;;;;;;117401;1182;25650;-61
2023/01/23 15:09:37;;;;;;;;;5.00;5.00;;;;;;;;117443;1183;25396;-63
2023/01/23 15:12:16;;;;;;;;;4.50;4.50;;;;;;;;117348;1195;24905;-65
2023/01/23 15:14:45;;;;;;;;;5.00;5.00;;;;;;;;117333;1195;25670;-64
2023/01/23 15:17:18;;;;;;;;;4.00;4.00;;;;;;;;117369;1195;24936;-65
2023/01/23 15:19:58;;;;;;;;;7.00;5.00;;;;;;;;117352;1189;25487;-63
2023/01/23 15:22:28;;;;;;;;;4.50;4.50;;;;;;;;117332;1184;25152;-64